aviador You're here:

ZBYN Decoded Metar

TAIYUAN in CHINA
Report Time2017-05-30 11:00:00
UTC Time2017-05-30 11:12:56
Flight Rules vfr VFR
Wind030° at 8 kt
W.Decomp.*RWY 31: 0.8 kt HW 8.0 kt RCW
W.Rank030° ranks 30
Current wind is above 030° avg. (3.5)
Visibility9999 m
Phenomena:Recent thunderstorm
Clouds:Few CB 033 Hf
Scattered 040 Hf
Expected CloudBase > 2,400 ft AGL from Temp-Dew spread
CeilingNone
Temp19°C (ISA +9)
Dew Point13°C (68% RH)
AAT17.0°C
QNH1009 hPa
Density Alt3,960 ft
Elevation2,556 ft
Report Wrong Elevation
Raw Report
ZBYN 301100Z 03004MPS 340V070 9999 FEW033CB SCT040 19/13 Q1009
RETS NOSIG=

Extra information for ZBYN:More info

Metar Taf Metar & Taf Last 4 Metars F.Rules Stats Wind Profile Meteogram Temp Stats Airport Information Weather charts Add Link Nearby VenuesMetar ALERT Operation Metar Decoded Social comments